Time;durP1;ratioP1;P1;durP2;ratioP2;P2;SDS_P1;SDS_P2;PMS_P1;PMS_P2;Temp;Humidity;BMP_temperature;BMP_pressure;BME280_temperature;BME280_humidity;BME280_pressure;Samples;Min_cycle;Max_cycle;Signal;HPM_P1;HPM_P2
2023/11/26 00:01:31;;;;;;;;;;;;;;;3.24;74.05;96453.22;5094448;28;19913;-78
2023/11/26 00:03:56;;;;;;;;;;;;;;;3.30;73.81;96457.59;5094338;28;20054;-77
2023/11/26 00:06:22;;;;;;;;;;;;;;;3.27;73.93;96470.25;5094481;28;19950;-78
2023/11/26 00:08:47;;;;;;;;;;;;;;;3.33;73.79;96496.28;5094229;28;19923;-78
2023/11/26 00:11:12;;;;;;;;;;;;;;;3.23;73.96;96493.31;5092843;28;20302;-78
2023/11/26 00:13:38;;;;;;;;;;;;;;;3.29;73.78;96494.31;5092631;28;20030;-79
2023/11/26 00:16:04;;;;;;;;;;;;;;;3.32;73.82;96491.28;5092713;28;19918;-77
2023/11/26 00:18:29;;;;;;;;;;;;;;;3.35;73.43;96496.88;5092465;28;20011;-78
2023/11/26 00:20:54;;;;;;;;;;;;;;;3.28;73.74;96505.75;5092346;28;19918;-77
2023/11/26 00:23:20;;;;;;;;;;;;;;;3.31;73.45;96520.97;5092366;28;19935;-77
2023/11/26 00:25:45;;;;;;;;;;;;;;;3.34;73.50;96518.75;5092793;28;20412;-76
2023/11/26 00:28:10;;;;;;;;;;;;;;;3.35;73.70;96514.34;5075657;28;19916;-77
2023/11/26 00:30:36;;;;;;;;;;;;;;;3.38;73.24;96514.72;5093762;28;19912;-78
2023/11/26 00:33:01;;;;;;;;;;;;;;;3.32;73.50;96504.31;5092416;28;19912;-78
2023/11/26 00:35:26;;;;;;;;;;;;;;;3.30;74.06;96525.38;5093573;28;20353;-78
2023/11/26 00:37:52;;;;;;;;;;;;;;;3.31;73.40;96521.78;5093696;28;20046;-77
2023/11/26 00:40:23;;;;;;;;;;;;;;;3.30;73.92;96525.38;5075270;28;20000;-77
2023/11/26 00:42:49;;;;;;;;;;;;;;;3.35;73.12;96527.38;5092116;28;19912;-78
2023/11/26 00:45:14;;;;;;;;;;;;;;;3.26;73.92;96518.97;5091960;28;19912;-77
2023/11/26 00:47:39;;;;;;;;;;;;;;;3.28;73.98;96524.78;5091762;28;19919;-78
2023/11/26 00:50:05;;;;;;;;;;;;;;;3.26;73.77;96515.56;5091994;28;19916;-78
2023/11/26 00:52:32;;;;;;;;;;;;;;;3.32;74.03;96509.53;5091974;28;19987;-78
2023/11/26 00:54:57;;;;;;;;;;;;;;;3.35;73.51;96524.75;5091852;28;19969;-77
2023/11/26 00:57:22;;;;;;;;;;;;;;;3.27;74.00;96514.56;5091842;28;19916;-77
2023/11/26 00:59:48;;;;;;;;;;;;;;;3.21;74.48;96510.19;5090700;28;19912;-78
2023/11/26 01:02:13;;;;;;;;;;;;;;;3.27;73.89;96504.94;5091911;28;20312;-77
2023/11/26 01:04:38;;;;;;;;;;;;;;;3.26;73.77;96484.28;5091890;28;19955;-78
2023/11/26 01:07:05;;;;;;;;;;;;;;;3.24;73.93;96484.50;5091783;28;19908;-77
2023/11/26 01:09:31;;;;;;;;;;;;;;;3.21;74.37;96508.38;5076035;28;19923;-78
2023/11/26 01:11:56;;;;;;;;;;;;;;;3.16;74.04;96513.41;5077852;28;19913;-78
2023/11/26 01:14:21;;;;;;;;;;;;;;;3.19;74.10;96533.84;5096011;28;20320;-77
2023/11/26 01:16:49;;;;;;;;;;;;;;;3.28;73.61;96524.00;5096110;28;19912;-78
2023/11/26 01:19:14;;;;;;;;;;;;;;;3.19;74.45;96531.25;5095827;28;20365;-78
2023/11/26 01:21:39;;;;;;;;;;;;;;;3.21;74.48;96531.03;5095807;28;20006;-77
2023/11/26 01:24:08;;;;;;;;;;;;;;;3.25;73.88;96530.41;5077603;28;20010;-77
2023/11/26 01:26:35;;;;;;;;;;;;;;;3.35;73.51;96527.38;5095044;28;20234;-76
2023/11/26 01:29:01;;;;;;;;;;;;;;;3.29;74.10;96536.81;5096080;28;20003;-77
2023/11/26 01:31:27;;;;;;;;;;;;;;;3.34;73.78;96550.03;5095713;28;19912;-78
2023/11/26 01:33:52;;;;;;;;;;;;;;;3.35;73.86;96548.22;5095589;28;19912;-78
2023/11/26 01:36:17;;;;;;;;;;;;;;;3.28;73.96;96550.06;5095853;28;20384;-78
2023/11/26 01:38:43;;;;;;;;;;;;;;;3.31;73.67;96567.91;5096571;28;19916;-77
2023/11/26 01:41:08;;;;;;;;;;;;;;;3.30;73.99;96572.31;5078613;28;19912;-77
2023/11/26 01:43:33;;;;;;;;;;;;;;;3.35;73.72;96587.34;5096538;28;19919;-76
2023/11/26 01:46:17;;;;;;;;;;;;;;;3.36;73.51;96592.34;5097094;28;19919;-77
2023/11/26 01:48:42;;;;;;;;;;;;;;;3.35;74.16;96603.78;5096679;28;19920;-76
2023/11/26 01:51:13;;;;;;;;;;;;;;;3.40;73.27;96611.00;5096952;28;19934;-76
2023/11/26 01:53:40;;;;;;;;;;;;;;;3.43;73.43;96602.78;5077559;28;19941;-77
2023/11/26 01:56:07;;;;;;;;;;;;;;;3.45;73.48;96603.38;5076987;28;19950;-78
2023/11/26 01:58:34;;;;;;;;;;;;;;;3.42;73.72;96607.19;5077760;28;20012;-76
2023/11/26 02:01:00;;;;;;;;;;;;;;;3.48;73.18;96613.41;5077705;28;20004;-78
2023/11/26 02:03:25;;;;;;;;;;;;;;;3.47;73.29;96609.19;5095865;28;19952;-77
2023/11/26 02:05:50;;;;;;;;;;;;;;;3.40;73.80;96618.84;5095726;28;19964;-77
2023/11/26 02:08:16;;;;;;;;;;;;;;;3.18;74.45;96628.69;5093884;28;19974;-77
2023/11/26 02:10:41;;;;;;;;;;;;;;;3.36;73.89;96633.28;5095265;28;19921;-76
2023/11/26 02:13:07;;;;;;;;;;;;;;;3.37;73.57;96643.50;5094903;28;19954;-75
2023/11/26 02:15:35;;;;;;;;;;;;;;;3.45;73.52;96634.66;5094646;28;19986;-78
2023/11/26 02:18:01;;;;;;;;;;;;;;;3.46;73.08;96634.47;5094560;28;19912;-77
2023/11/26 02:20:26;;;;;;;;;;;;;;;3.50;73.18;96627.03;5076051;28;19923;-77
2023/11/26 02:22:52;;;;;;;;;;;;;;;3.44;73.18;96623.44;5094677;28;19962;-76
2023/11/26 02:25:20;;;;;;;;;;;;;;;3.42;73.67;96630.66;5094573;28;20277;-77
2023/11/26 02:27:45;;;;;;;;;;;;;;;3.50;73.01;96621.81;5094261;28;19924;-78
2023/11/26 02:30:13;;;;;;;;;;;;;;;3.55;73.02;96608.16;5094548;28;19912;-76
2023/11/26 02:32:38;;;;;;;;;;;;;;;3.46;73.01;96631.06;5094523;28;19912;-76
2023/11/26 02:35:03;;;;;;;;;;;;;;;3.28;73.58;96641.31;5094693;28;19912;-77
2023/11/26 02:37:29;;;;;;;;;;;;;;;3.30;73.85;96654.97;5094538;28;19919;-76
2023/11/26 02:39:54;;;;;;;;;;;;;;;3.28;74.31;96665.59;5076079;28;19942;-76
2023/11/26 02:42:19;;;;;;;;;;;;;;;3.38;73.62;96665.97;5093998;28;19912;-76
2023/11/26 02:44:45;;;;;;;;;;;;;;;3.43;73.17;96665.38;5094096;28;19912;-76
2023/11/26 02:47:11;;;;;;;;;;;;;;;3.42;73.39;96675.00;5094006;28;20007;-76
2023/11/26 02:49:36;;;;;;;;;;;;;;;3.40;73.13;96679.63;5093924;28;19920;-76
2023/11/26 02:52:03;;;;;;;;;;;;;;;3.36;73.83;96688.03;5093918;28;20441;-76
2023/11/26 02:54:28;;;;;;;;;;;;;;;3.27;73.40;96692.66;5095664;28;19912;-76
2023/11/26 02:56:54;;;;;;;;;;;;;;;3.33;73.60;96697.06;5096652;28;20010;-75
2023/11/26 02:59:20;;;;;;;;;;;;;;;3.38;73.21;96710.31;5098989;28;19912;-75
2023/11/26 03:01:47;;;;;;;;;;;;;;;3.34;73.92;96718.75;5078430;28;19912;-76
2023/11/26 03:04:17;;;;;;;;;;;;;;;3.35;73.32;96715.94;5093912;28;19954;-76
2023/11/26 03:06:44;;;;;;;;;;;;;;;3.35;73.69;96720.34;5093581;28;19919;-75
2023/11/26 03:09:29;;;;;;;;;;;;;;;3.35;73.73;96726.34;5093401;28;19923;-76
2023/11/26 03:14:38;;;;;;;;;;;;;;;3.39;72.98;96752.84;5093611;28;20003;-75
2023/11/26 03:17:04;;;;;;;;;;;;;;;3.47;72.54;96757.84;5093433;28;19944;-76
2023/11/26 03:19:29;;;;;;;;;;;;;;;3.44;72.77;96750.44;5093701;28;19988;-76
2023/11/26 03:21:54;;;;;;;;;;;;;;;3.46;72.46;96769.28;5093466;28;19968;-76
2023/11/26 03:24:20;;;;;;;;;;;;;;;3.48;72.56;96775.91;5093503;28;19912;-75
2023/11/26 03:26:45;;;;;;;;;;;;;;;3.51;72.63;96790.34;5093533;28;20324;-75
2023/11/26 03:29:10;;;;;;;;;;;;;;;3.43;72.63;96788.75;5093204;28;19916;-75
2023/11/26 03:31:36;;;;;;;;;;;;;;;3.44;72.99;96794.75;5092458;28;19983;-76
2023/11/26 03:34:08;;;;;;;;;;;;;;;3.47;72.78;96808.22;5093133;28;19916;-77
2023/11/26 03:36:33;;;;;;;;;;;;;;;3.44;72.61;96820.84;5093359;28;19923;-75
2023/11/26 03:38:58;;;;;;;;;;;;;;;3.45;72.53;96820.66;5093055;28;19912;-77
2023/11/26 03:41:24;;;;;;;;;;;;;;;3.47;72.59;96825.66;5093056;28;19950;-77
2023/11/26 03:43:50;;;;;;;;;;;;;;;3.41;72.93;96839.50;5093065;28;19944;-76
2023/11/26 03:46:16;;;;;;;;;;;;;;;3.44;72.90;96842.50;5092958;28;19912;-76
2023/11/26 03:48:45;;;;;;;;;;;;;;;3.45;72.66;96851.94;5092999;28;19916;-76
2023/11/26 03:51:23;;;;;;;;;;;;;;;3.54;72.62;96860.38;5092892;28;20313;-76
2023/11/26 03:53:48;;;;;;;;;;;;;;;3.52;72.43;96859.78;5092544;28;19956;-76
2023/11/26 03:56:14;;;;;;;;;;;;;;;3.50;72.65;96878.25;5092704;28;19916;-76
2023/11/26 03:58:39;;;;;;;;;;;;;;;3.44;73.23;96880.84;5093029;28;19982;-76
2023/11/26 04:01:05;;;;;;;;;;;;;;;3.53;72.50;96884.88;5093067;28;19912;-76
2023/11/26 04:03:30;;;;;;;;;;;;;;;3.39;72.58;96896.28;5093357;28;19912;-76
2023/11/26 04:05:56;;;;;;;;;;;;;;;3.39;73.10;96907.50;5091811;28;19912;-76
2023/11/26 04:08:22;;;;;;;;;;;;;;;3.34;73.13;96928.16;5093170;28;19916;-76
2023/11/26 04:10:48;;;;;;;;;;;;;;;3.36;72.96;96922.75;5092621;28;20400;-75
2023/11/26 04:13:13;;;;;;;;;;;;;;;3.42;72.75;96933.19;5091187;28;19919;-75
2023/11/26 04:15:44;;;;;;;;;;;;;;;3.42;72.82;96951.47;5092377;28;19919;-75
2023/11/26 04:18:09;;;;;;;;;;;;;;;3.47;72.37;96953.47;5092305;28;19948;-75
2023/11/26 04:20:35;;;;;;;;;;;;;;;3.53;72.22;96957.91;5074243;28;19966;-75
2023/11/26 04:23:00;;;;;;;;;;;;;;;3.51;72.32;96972.94;5092222;28;19970;-75
2023/11/26 04:25:25;;;;;;;;;;;;;;;3.50;72.05;96979.97;5092270;28;20307;-75
2023/11/26 04:27:51;;;;;;;;;;;;;;;3.41;72.11;96990.78;5092228;28;19916;-75
2023/11/26 04:30:17;;;;;;;;;;;;;;;3.38;72.87;97009.41;5092244;28;19912;-75
2023/11/26 04:32:42;;;;;;;;;;;;;;;3.42;72.84;97011.44;5092125;28;20399;-75
2023/11/26 04:35:08;;;;;;;;;;;;;;;3.43;72.45;97026.09;5090741;28;20399;-75
2023/11/26 04:37:34;;;;;;;;;;;;;;;3.45;72.28;97039.75;5091676;28;19946;-76
2023/11/26 04:39:59;;;;;;;;;;;;;;;3.49;72.33;97053.19;5097332;28;19912;-76
2023/11/26 04:42:25;;;;;;;;;;;;;;;3.49;72.09;97064.44;5093953;28;19912;-75
2023/11/26 04:44:50;;;;;;;;;;;;;;;3.51;72.10;97078.09;5091955;28;20498;-75
2023/11/26 04:47:15;;;;;;;;;;;;;;;3.59;72.15;97078.94;5091746;28;20392;-75
2023/11/26 04:49:41;;;;;;;;;;;;;;;3.52;72.10;97091.94;5091653;28;19946;-76
2023/11/26 04:52:06;;;;;;;;;;;;;;;3.62;71.77;97096.81;5092046;28;19912;-76
2023/11/26 04:54:31;;;;;;;;;;;;;;;3.59;71.58;97107.63;5091748;28;20423;-76
2023/11/26 04:56:57;;;;;;;;;;;;;;;3.63;71.93;97124.50;5092085;28;19912;-76
2023/11/26 04:59:23;;;;;;;;;;;;;;;3.62;72.03;97128.91;5091774;28;19912;-76
2023/11/26 05:01:55;;;;;;;;;;;;;;;3.64;71.81;97134.75;5073739;28;19912;-76
2023/11/26 05:04:20;;;;;;;;;;;;;;;3.70;72.16;97147.03;5091923;28;19918;-76
2023/11/26 05:06:46;;;;;;;;;;;;;;;3.71;71.74;97153.84;5073536;28;19998;-75
2023/11/26 05:09:11;;;;;;;;;;;;;;;3.66;71.78;97168.47;5092030;28;19972;-76
2023/11/26 05:11:43;;;;;;;;;;;;;;;3.55;72.24;97179.44;5091826;28;19941;-76
2023/11/26 05:14:09;;;;;;;;;;;;;;;3.58;72.38;97182.47;5091889;28;19908;-76
2023/11/26 05:16:34;;;;;;;;;;;;;;;3.56;72.49;97184.47;5091824;28;20058;-77
2023/11/26 05:18:59;;;;;;;;;;;;;;;3.58;72.23;97184.28;5091717;28;19927;-76
2023/11/26 05:21:25;;;;;;;;;;;;;;;3.48;73.03;97195.88;5091863;28;19919;-77
2023/11/26 05:23:50;;;;;;;;;;;;;;;3.51;72.44;97203.31;5091448;28;20001;-76
2023/11/26 05:26:15;;;;;;;;;;;;;;;3.51;72.39;97210.34;5073461;28;19919;-76
2023/11/26 05:28:41;;;;;;;;;;;;;;;3.52;72.25;97206.72;5091357;28;20008;-77
2023/11/26 05:31:06;;;;;;;;;;;;;;;3.52;72.66;97209.34;5091756;28;19912;-75
2023/11/26 05:33:31;;;;;;;;;;;;;;;3.60;72.74;97216.22;5091524;28;19963;-76
2023/11/26 05:35:57;;;;;;;;;;;;;;;3.62;72.21;97228.06;5073448;28;20332;-77
2023/11/26 05:38:22;;;;;;;;;;;;;;;3.65;72.51;97235.50;5091388;28;19916;-77
2023/11/26 05:40:48;;;;;;;;;;;;;;;3.71;72.20;97249.59;5073279;28;19912;-77
2023/11/26 05:43:13;;;;;;;;;;;;;;;3.78;72.05;97268.75;5091592;28;19912;-77
2023/11/26 05:45:39;;;;;;;;;;;;;;;3.80;71.61;97279.81;5091627;28;19912;-76
2023/11/26 05:48:06;;;;;;;;;;;;;;;3.78;71.33;97284.41;5091574;28;19920;-77
2023/11/26 05:50:31;;;;;;;;;;;;;;;3.83;71.42;97295.09;5091770;28;19944;-77
2023/11/26 05:52:56;;;;;;;;;;;;;;;3.83;71.52;97297.69;5091417;28;19919;-78
2023/11/26 05:55:22;;;;;;;;;;;;;;;3.85;71.31;97302.72;5093414;28;19916;-76
2023/11/26 05:57:47;;;;;;;;;;;;;;;3.75;71.88;97308.28;5095253;28;20455;-78
2023/11/26 06:00:13;;;;;;;;;;;;;;;3.82;71.98;97319.56;5095284;28;20010;-78
2023/11/26 06:02:39;;;;;;;;;;;;;;;3.79;71.62;97330.41;5095091;28;20393;-78
2023/11/26 06:05:04;;;;;;;;;;;;;;;3.80;71.78;97332.00;5094933;28;19912;-77
2023/11/26 06:07:31;;;;;;;;;;;;;;;3.74;72.06;97341.41;5095751;28;19911;-77
2023/11/26 06:09:56;;;;;;;;;;;;;;;3.73;72.30;97346.81;5078915;28;19916;-77
2023/11/26 06:12:21;;;;;;;;;;;;;;;3.78;72.03;97350.47;5097366;28;20321;-77
2023/11/26 06:14:47;;;;;;;;;;;;;;;3.73;72.27;97355.44;5097305;28;19912;-77
2023/11/26 06:17:12;;;;;;;;;;;;;;;3.74;72.11;97369.31;5096986;28;20344;-77
2023/11/26 06:19:38;;;;;;;;;;;;;;;3.63;72.62;97385.44;5097022;28;19927;-77
2023/11/26 06:22:03;;;;;;;;;;;;;;;3.71;72.32;97393.94;5098103;28;19912;-77
2023/11/26 06:24:30;;;;;;;;;;;;;;;3.66;72.76;97400.72;5076510;28;19912;-78
2023/11/26 06:26:56;;;;;;;;;;;;;;;3.63;72.44;97396.69;5094487;28;19912;-76
2023/11/26 06:29:21;;;;;;;;;;;;;;;3.40;73.56;97412.50;5094570;28;19916;-78
2023/11/26 06:31:47;;;;;;;;;;;;;;;3.40;73.37;97416.91;5094401;28;19961;-77
2023/11/26 06:34:12;;;;;;;;;;;;;;;3.37;73.50;97419.88;5094366;28;19908;-76
2023/11/26 06:36:37;;;;;;;;;;;;;;;3.47;72.95;97426.44;5076116;28;19912;-77
2023/11/26 06:39:08;;;;;;;;;;;;;;;3.45;73.24;97427.59;5094141;28;19915;-77
2023/11/26 06:41:34;;;;;;;;;;;;;;;3.47;73.02;97446.50;5094190;28;20436;-77
2023/11/26 06:43:59;;;;;;;;;;;;;;;3.48;73.28;97446.31;5094283;28;19959;-78
2023/11/26 06:46:29;;;;;;;;;;;;;;;3.47;72.83;97438.66;5094193;28;19991;-76
2023/11/26 06:48:54;;;;;;;;;;;;;;;3.32;73.47;97438.69;5075950;28;19916;-77
2023/11/26 06:51:20;;;;;;;;;;;;;;;3.36;73.59;97449.56;5075902;28;19912;-78
2023/11/26 06:53:46;;;;;;;;;;;;;;;3.35;73.93;97453.19;5075790;28;19966;-77
2023/11/26 06:56:11;;;;;;;;;;;;;;;3.40;73.33;97449.03;5094401;28;20416;-78
2023/11/26 06:58:37;;;;;;;;;;;;;;;3.39;73.94;97450.00;5095447;28;19969;-76
2023/11/26 07:01:03;;;;;;;;;;;;;;;3.32;73.57;97467.41;5077261;28;19919;-77
2023/11/26 07:03:28;;;;;;;;;;;;;;;3.33;74.34;97468.19;5095551;28;20047;-77
2023/11/26 07:05:54;;;;;;;;;;;;;;;3.39;73.71;97470.88;5094368;28;19998;-77
2023/11/26 07:08:19;;;;;;;;;;;;;;;3.34;73.92;97485.47;5095286;28;20412;-78
2023/11/26 07:10:44;;;;;;;;;;;;;;;3.44;73.71;97485.97;5077314;28;20308;-77
2023/11/26 07:13:10;;;;;;;;;;;;;;;3.49;73.38;97484.44;5093633;28;19942;-77
2023/11/26 07:15:36;;;;;;;;;;;;;;;3.54;72.82;97494.31;5093552;28;19912;-77
2023/11/26 07:18:01;;;;;;;;;;;;;;;3.51;73.34;97507.75;5093093;28;19920;-78
2023/11/26 07:20:27;;;;;;;;;;;;;;;3.53;72.98;97513.59;5093395;28;19923;-77
2023/11/26 07:22:52;;;;;;;;;;;;;;;3.61;72.94;97521.31;5092134;28;19917;-77
2023/11/26 07:25:19;;;;;;;;;;;;;;;3.62;72.74;97535.16;5091991;28;19969;-77
2023/11/26 07:27:44;;;;;;;;;;;;;;;3.73;72.18;97545.97;5093233;28;20350;-77
2023/11/26 07:30:10;;;;;;;;;;;;;;;3.79;72.14;97549.63;5093146;28;19912;-77
2023/11/26 07:32:35;;;;;;;;;;;;;;;3.86;72.05;97560.97;5093284;28;20372;-77
2023/11/26 07:35:00;;;;;;;;;;;;;;;3.91;71.60;97558.59;5093185;28;19919;-76
2023/11/26 07:37:27;;;;;;;;;;;;;;;3.99;71.38;97557.69;5093264;28;19920;-75
2023/11/26 07:39:53;;;;;;;;;;;;;;;4.02;71.20;97570.38;5093134;28;19912;-75
2023/11/26 07:42:18;;;;;;;;;;;;;;;4.05;71.12;97572.59;5092938;28;20438;-78
2023/11/26 07:44:43;;;;;;;;;;;;;;;4.06;70.76;97582.88;5093094;28;20355;-77
2023/11/26 07:47:09;;;;;;;;;;;;;;;4.00;70.60;97594.06;5092998;28;19912;-76
2023/11/26 07:49:36;;;;;;;;;;;;;;;3.99;70.57;97596.84;5074557;28;20404;-77
2023/11/26 07:52:01;;;;;;;;;;;;;;;3.93;69.85;97592.34;5093293;28;19962;-78
2023/11/26 07:54:26;;;;;;;;;;;;;;;4.03;70.29;97603.31;5075876;28;19916;-75
2023/11/26 07:56:53;;;;;;;;;;;;;;;4.09;69.80;97613.03;5094386;28;20002;-77
2023/11/26 07:59:19;;;;;;;;;;;;;;;4.20;69.92;97615.16;5094452;28;20370;-76
2023/11/26 08:01:51;;;;;;;;;;;;;;;4.23;69.18;97625.22;5095280;28;20007;-77
2023/11/26 08:04:17;;;;;;;;;;;;;;;4.19;68.52;97637.03;5077773;28;19909;-75
2023/11/26 08:06:46;;;;;;;;;;;;;;;4.25;68.94;97633.69;5097061;28;20019;-75
2023/11/26 08:09:13;;;;;;;;;;;;;;;4.38;69.08;97643.47;5093431;28;19952;-77
2023/11/26 08:11:43;;;;;;;;;;;;;;;4.32;67.83;97641.59;5074373;28;19968;-77
2023/11/26 08:14:12;;;;;;;;;;;;;;;4.30;68.47;97649.63;5092548;28;19964;-77
2023/11/26 08:16:38;;;;;;;;;;;;;;;4.28;67.58;97663.88;5092607;28;19912;-77
2023/11/26 08:19:07;;;;;;;;;;;;;;;4.34;67.21;97661.31;5092442;28;19924;-77
2023/11/26 08:21:34;;;;;;;;;;;;;;;4.34;67.65;97677.00;5092504;28;19923;-77
2023/11/26 08:24:01;;;;;;;;;;;;;;;4.37;66.96;97691.50;5092811;28;19912;-76
2023/11/26 08:26:32;;;;;;;;;;;;;;;4.32;66.96;97686.81;5092733;28;19916;-77
2023/11/26 08:28:57;;;;;;;;;;;;;;;4.44;67.24;97692.38;5092255;28;19939;-76
2023/11/26 08:31:27;;;;;;;;;;;;;;;4.44;66.48;97695.81;5092543;28;20389;-76
2023/11/26 08:33:53;;;;;;;;;;;;;;;4.35;65.99;97689.06;5092327;28;19912;-76
2023/11/26 08:36:18;;;;;;;;;;;;;;;4.33;64.44;97708.53;5092376;28;19912;-76
2023/11/26 08:38:44;;;;;;;;;;;;;;;4.26;64.25;97707.66;5092177;28;19942;-76
2023/11/26 08:41:10;;;;;;;;;;;;;;;4.25;65.23;97714.66;5092159;28;20004;-76
2023/11/26 08:43:39;;;;;;;;;;;;;;;4.26;64.31;97731.16;5091859;28;19950;-76
2023/11/26 08:46:07;;;;;;;;;;;;;;;4.20;63.63;97724.84;5092171;28;19948;-76
2023/11/26 08:48:36;;;;;;;;;;;;;;;4.20;63.84;97740.53;5091926;28;19985;-76
2023/11/26 08:51:01;;;;;;;;;;;;;;;4.11;63.40;97733.78;5092015;28;20452;-75
2023/11/26 08:53:27;;;;;;;;;;;;;;;4.23;63.57;97771.50;5091689;28;19999;-76
2023/11/26 08:55:52;;;;;;;;;;;;;;;4.24;63.63;97762.69;5091798;28;19966;-75
2023/11/26 08:58:17;;;;;;;;;;;;;;;4.23;63.32;97761.06;5091919;28;20328;-75
2023/11/26 09:00:43;;;;;;;;;;;;;;;4.32;63.59;97764.38;5091821;28;19912;-76
2023/11/26 09:03:08;;;;;;;;;;;;;;;4.38;63.29;97779.34;5091825;28;19912;-75
2023/11/26 09:05:33;;;;;;;;;;;;;;;4.26;62.00;97770.34;5091766;28;19912;-76
2023/11/26 09:07:59;;;;;;;;;;;;;;;4.21;61.99;97789.16;5090574;28;19913;-76
2023/11/26 09:10:24;;;;;;;;;;;;;;;4.22;61.84;97796.00;5092275;28;20363;-76
2023/11/26 09:12:50;;;;;;;;;;;;;;;4.18;62.37;97797.38;5092332;28;19912;-76
2023/11/26 09:15:16;;;;;;;;;;;;;;;4.21;61.13;97806.63;5091874;28;19904;-76
2023/11/26 09:17:41;;;;;;;;;;;;;;;4.13;60.95;97802.31;5090748;28;19958;-75
2023/11/26 09:20:11;;;;;;;;;;;;;;;4.12;61.01;97803.31;5092104;28;19927;-75
2023/11/26 09:22:38;;;;;;;;;;;;;;;4.16;61.10;97809.78;5091901;28;19934;-75
2023/11/26 09:25:04;;;;;;;;;;;;;;;4.19;60.55;97803.41;5091851;28;20006;-76
2023/11/26 09:27:29;;;;;;;;;;;;;;;4.17;60.16;97803.56;5091996;28;19912;-76
2023/11/26 09:29:55;;;;;;;;;;;;;;;4.26;61.24;97825.19;5093206;28;19916;-76
2023/11/26 09:32:20;;;;;;;;;;;;;;;4.13;59.84;97831.84;5096347;28;19920;-76
2023/11/26 09:34:45;;;;;;;;;;;;;;;4.30;59.95;97819.44;5096144;28;20301;-76
2023/11/26 09:37:11;;;;;;;;;;;;;;;4.25;59.46;97831.41;5095156;28;20000;-77
2023/11/26 09:39:37;;;;;;;;;;;;;;;4.13;59.16;97839.69;5096489;28;19913;-77
2023/11/26 09:42:03;;;;;;;;;;;;;;;4.25;59.36;97854.91;5097369;28;19977;-76
2023/11/26 09:44:29;;;;;;;;;;;;;;;4.27;59.13;97845.91;5099025;28;20417;-76
2023/11/26 09:46:55;;;;;;;;;;;;;;;4.21;58.95;97871.94;5081133;28;19962;-75
2023/11/26 09:49:20;;;;;;;;;;;;;;;4.16;58.22;97851.59;5099141;28;20305;-76
2023/11/26 09:51:47;;;;;;;;;;;;;;;4.24;58.33;97869.78;5095384;28;19912;-75
2023/11/26 09:54:13;;;;;;;;;;;;;;;4.14;58.48;97870.03;5094113;28;19916;-75
2023/11/26 09:56:39;;;;;;;;;;;;;;;4.05;57.74;97893.81;5095127;28;20362;-76
2023/11/26 09:59:08;;;;;;;;;;;;;;;4.10;57.67;97896.69;5094910;28;19915;-75
2023/11/26 10:01:33;;;;;;;;;;;;;;;4.10;56.44;97902.72;5094888;28;19918;-75
2023/11/26 10:04:00;;;;;;;;;;;;;;;4.09;57.10;97906.31;5094979;28;19912;-75
2023/11/26 10:06:26;;;;;;;;;;;;;;;4.18;57.33;97901.84;5094730;28;20300;-75
2023/11/26 10:08:52;;;;;;;;;;;;;;;4.18;56.29;97924.53;5094827;28;19920;-75
2023/11/26 10:11:24;;;;;;;;;;;;;;;4.20;56.85;97935.63;5094717;28;20450;-75
2023/11/26 10:13:50;;;;;;;;;;;;;;;4.19;56.05;97932.19;5094604;28;19918;-75
2023/11/26 10:16:34;;;;;;;;;;;;;;;4.17;56.54;97939.41;5094879;28;19999;-75
2023/11/26 10:19:03;;;;;;;;;;;;;;;4.23;57.01;97938.69;5094504;28;19927;-74
2023/11/26 10:21:29;;;;;;;;;;;;;;;4.19;55.63;97971.38;5094751;28;19941;-75
2023/11/26 10:23:55;;;;;;;;;;;;;;;4.15;55.80;97957.03;5076345;28;20415;-75
2023/11/26 10:26:22;;;;;;;;;;;;;;;4.24;55.65;97955.19;5094376;28;19912;-75
2023/11/26 10:29:00;;;;;;;;;;;;;;;4.27;55.95;97968.69;5094118;28;19916;-75
2023/11/26 10:31:26;;;;;;;;;;;;;;;4.23;54.90;97971.84;5094507;28;19912;-75
2023/11/26 10:33:51;;;;;;;;;;;;;;;4.18;55.26;97988.03;5094532;28;19919;-76
2023/11/26 10:36:33;;;;;;;;;;;;;;;4.14;55.17;97992.81;5094579;28;19912;-76
2023/11/26 10:39:00;;;;;;;;;;;;;;;4.17;55.11;98001.28;5094162;28;19912;-76
2023/11/26 10:41:26;;;;;;;;;;;;;;;4.09;54.31;98015.22;5093998;28;19943;-76
2023/11/26 10:43:55;;;;;;;;;;;;;;;4.10;55.09;98001.16;5094295;28;20320;-76
2023/11/26 10:46:23;;;;;;;;;;;;;;;4.11;54.83;98008.00;5094257;28;19919;-76
2023/11/26 10:48:54;;;;;;;;;;;;;;;4.06;54.68;98026.81;5094252;28;20407;-76
2023/11/26 10:51:20;;;;;;;;;;;;;;;3.97;53.65;98016.59;5094136;28;20285;-76
2023/11/26 10:53:48;;;;;;;;;;;;;;;4.06;54.64;98018.16;5094087;28;19911;-76
2023/11/26 10:56:17;;;;;;;;;;;;;;;4.09;54.86;98038.72;5094329;28;19947;-76
2023/11/26 10:58:47;;;;;;;;;;;;;;;4.08;53.92;98037.91;5094067;28;20025;-76
2023/11/26 11:01:13;;;;;;;;;;;;;;;4.11;54.89;98055.03;5075928;28;19919;-76
2023/11/26 11:03:39;;;;;;;;;;;;;;;4.21;54.60;98060.00;5094429;28;20001;-76
2023/11/26 11:06:05;;;;;;;;;;;;;;;4.12;53.54;98095.81;5094136;28;19951;-76
2023/11/26 11:08:31;;;;;;;;;;;;;;;4.00;53.18;98064.06;5094292;28;19998;-76
2023/11/26 11:11:01;;;;;;;;;;;;;;;4.04;54.28;98077.59;5075794;28;19955;-76
2023/11/26 11:13:27;;;;;;;;;;;;;;;4.04;53.27;98072.38;5094070;28;19912;-76
2023/11/26 11:15:53;;;;;;;;;;;;;;;4.04;54.41;98090.66;5093882;28;20381;-76
2023/11/26 11:18:39;;;;;;;;;;;;;;;4.00;54.19;98095.41;5075727;28;20011;-75
2023/11/26 11:21:10;;;;;;;;;;;;;;;4.02;53.65;98108.28;5093317;28;19969;-75
2023/11/26 11:23:35;;;;;;;;;;;;;;;4.04;54.04;98101.91;5095048;28;20377;-75
2023/11/26 11:26:01;;;;;;;;;;;;;;;4.01;53.71;98120.53;5097251;28;19904;-75
2023/11/26 11:28:36;;;;;;;;;;;;;;;4.00;54.12;98123.31;5096564;28;20405;-75
2023/11/26 11:31:02;;;;;;;;;;;;;;;4.08;54.15;98128.50;5093062;28;19912;-75
2023/11/26 11:33:27;;;;;;;;;;;;;;;4.02;53.65;98114.31;5093142;28;20289;-75
2023/11/26 11:35:52;;;;;;;;;;;;;;;4.13;53.28;98131.41;5093310;28;20407;-75
2023/11/26 11:38:18;;;;;;;;;;;;;;;4.22;54.35;98153.88;5093240;28;20374;-75
2023/11/26 11:41:02;;;;;;;;;;;;;;;4.25;54.00;98137.06;5074940;28;20290;-76
2023/11/26 11:43:28;;;;;;;;;;;;;;;4.14;53.66;98144.28;5093204;28;19912;-75
2023/11/26 11:45:54;;;;;;;;;;;;;;;4.18;53.37;98138.72;5093146;28;19964;-75
2023/11/26 11:48:37;;;;;;;;;;;;;;;4.28;53.21;98150.59;5092956;28;19916;-75
2023/11/26 11:51:23;;;;;;;;;;;;;;;4.23;53.91;98145.06;5092811;28;19912;-76
2023/11/26 11:53:48;;;;;;;;;;;;;;;4.25;53.24;98168.41;5091937;28;19912;-76
2023/11/26 11:56:17;;;;;;;;;;;;;;;4.25;53.39;98161.38;5092547;28;20357;-76
2023/11/26 11:58:43;;;;;;;;;;;;;;;4.20;53.31;98168.91;5092767;28;20315;-75
2023/11/26 12:01:08;;;;;;;;;;;;;;;4.19;52.50;98174.31;5092637;28;19912;-75
2023/11/26 12:03:36;;;;;;;;;;;;;;;4.21;53.43;98181.00;5092622;28;19919;-76
2023/11/26 12:06:13;;;;;;;;;;;;;;;4.28;52.76;98202.84;5092520;28;19912;-76
2023/11/26 12:08:39;;;;;;;;;;;;;;;4.21;52.28;98186.22;5092389;28;19916;-75
2023/11/26 12:11:09;;;;;;;;;;;;;;;4.25;53.13;98200.56;5090964;28;19919;-76
2023/11/26 12:13:43;;;;;;;;;;;;;;;4.15;52.53;98208.59;5092525;28;19912;-75
2023/11/26 12:16:09;;;;;;;;;;;;;;;4.23;52.21;98226.03;5092486;28;19948;-75
2023/11/26 12:18:34;;;;;;;;;;;;;;;4.21;52.84;98228.00;5074173;28;19967;-75
2023/11/26 12:21:00;;;;;;;;;;;;;;;4.15;51.94;98231.31;5092542;28;19912;-75
2023/11/26 12:23:32;;;;;;;;;;;;;;;4.12;51.41;98235.06;5092488;28;19919;-75
2023/11/26 12:25:58;;;;;;;;;;;;;;;4.12;52.04;98244.69;5092459;28;20363;-76
2023/11/26 12:28:24;;;;;;;;;;;;;;;4.12;51.11;98257.75;5092256;28;19916;-75
2023/11/26 12:30:56;;;;;;;;;;;;;;;4.18;52.06;98257.09;5092345;28;19962;-75
2023/11/26 12:33:24;;;;;;;;;;;;;;;4.12;52.01;98257.75;5092098;28;20388;-76
2023/11/26 12:35:50;;;;;;;;;;;;;;;4.13;51.44;98248.94;5092317;28;19920;-75
2023/11/26 12:38:15;;;;;;;;;;;;;;;4.15;51.73;98244.38;5092289;28;19919;-75
2023/11/26 12:40:41;;;;;;;;;;;;;;;4.11;51.44;98266.59;5092260;28;19912;-76
2023/11/26 12:43:07;;;;;;;;;;;;;;;4.20;51.55;98267.38;5073873;28;19912;-76
2023/11/26 12:45:32;;;;;;;;;;;;;;;4.14;50.83;98264.44;5073933;28;19916;-76
2023/11/26 12:47:58;;;;;;;;;;;;;;;4.08;50.62;98264.31;5092210;28;19912;-76
2023/11/26 12:50:24;;;;;;;;;;;;;;;4.06;50.50;98268.88;5092075;28;20007;-76
2023/11/26 12:52:50;;;;;;;;;;;;;;;4.06;50.44;98281.94;5091898;28;19919;-76
2023/11/26 12:55:16;;;;;;;;;;;;;;;4.02;50.00;98288.47;5073549;28;19941;-76
2023/11/26 12:57:42;;;;;;;;;;;;;;;3.93;50.02;98308.56;5091875;28;19912;-76